Time;durP1;ratioP1;P1;durP2;ratioP2;P2;SDS_P1;SDS_P2;PMS_P1;PMS_P2;Temp;Humidity;BMP_temperature;BMP_pressure;BME280_temperature;BME280_humidity;BME280_pressure;Samples;Min_cycle;Max_cycle;Signal;HPM_P1;HPM_P2
2021/08/10 03:25:56;;;;;;;;;;;;;;;5.26;90.98;99802.53;3376117;26;19976;-87
2021/08/10 03:28:25;;;;;;;;;;;;;;;5.09;92.69;99808.13;5040855;28;19929;-88
2021/08/10 03:30:51;;;;;;;;;;;;;;;5.30;92.33;99807.69;5023580;28;20016;-88
2021/08/10 03:33:17;;;;;;;;;;;;;;;5.42;92.78;99804.81;5023015;28;19982;-87
2021/08/10 03:35:43;;;;;;;;;;;;;;;5.35;95.09;99813.75;5041807;28;19936;-89
2021/08/10 03:38:09;;;;;;;;;;;;;;;5.71;100.00;99814.72;5024801;28;19932;-90
2021/08/10 03:40:36;;;;;;;;;;;;;;;6.06;100.00;99812.19;5023293;28;19925;-90
2021/08/10 03:43:02;;;;;;;;;;;;;;;5.86;100.00;99824.00;5041289;28;19921;-88
2021/08/10 03:45:28;;;;;;;;;;;;;;;5.80;100.00;99826.78;5024612;28;19925;-89
2021/08/10 03:47:54;;;;;;;;;;;;;;;5.61;100.00;99827.16;5043134;28;19921;-90
2021/08/10 03:50:20;;;;;;;;;;;;;;;5.69;100.00;99834.03;5026698;28;19921;-91
2021/08/10 03:52:47;;;;;;;;;;;;;;;5.89;100.00;99841.47;5023097;28;19953;-90
2021/08/10 03:55:13;;;;;;;;;;;;;;;5.78;100.00;99833.84;5027021;28;19932;-91
2021/08/10 03:57:39;;;;;;;;;;;;;;;5.78;99.11;99844.34;5028272;28;19921;-91
2021/08/10 04:00:06;;;;;;;;;;;;;;;5.71;99.41;99845.38;5023322;28;19987;-92
2021/08/10 04:02:32;;;;;;;;;;;;;;;5.75;100.00;99839.16;5026902;28;20022;-91
2021/08/10 04:04:57;;;;;;;;;;;;;;;5.78;100.00;99825.94;5026413;28;19925;-92
2021/08/10 04:07:24;;;;;;;;;;;;;;;6.35;100.00;99817.59;5011579;28;19921;-91
2021/08/10 04:09:49;;;;;;;;;;;;;;;6.86;100.00;99813.66;5026849;28;19921;-91
2021/08/10 04:12:15;;;;;;;;;;;;;;;6.97;100.00;99804.56;5007313;28;19952;-91
2021/08/10 04:14:40;;;;;;;;;;;;;;;6.44;100.00;99807.75;5006877;28;19964;-90
2021/08/10 04:17:06;;;;;;;;;;;;;;;6.39;100.00;99809.63;5023013;28;19921;-91
2021/08/10 04:19:34;;;;;;;;;;;;;;;6.14;100.00;99808.47;5005571;28;19925;-91
2021/08/10 04:22:00;;;;;;;;;;;;;;;6.09;100.00;99812.09;5022573;28;19921;-91
2021/08/10 04:24:25;;;;;;;;;;;;;;;5.97;100.00;99805.38;5004727;28;19940;-91
2021/08/10 04:26:51;;;;;;;;;;;;;;;5.91;100.00;99803.72;5021826;28;19929;-91
2021/08/10 04:29:17;;;;;;;;;;;;;;;5.92;100.00;99802.84;5004240;28;19948;-89
2021/08/10 04:31:42;;;;;;;;;;;;;;;5.76;100.00;99810.22;5020934;28;19929;-89
2021/08/10 04:34:07;;;;;;;;;;;;;;;5.77;100.00;99813.69;5020651;28;19925;-90
2021/08/10 04:36:33;;;;;;;;;;;;;;;5.85;100.00;99814.38;5020813;28;19922;-90
2021/08/10 04:38:59;;;;;;;;;;;;;;;5.58;100.00;99798.31;5003844;28;19957;-91
2021/08/10 04:41:25;;;;;;;;;;;;;;;5.70;100.00;99798.97;5009151;28;19932;-91
2021/08/10 04:43:52;;;;;;;;;;;;;;;5.64;100.00;99792.94;5020564;28;20008;-89
2021/08/10 04:46:17;;;;;;;;;;;;;;;5.66;100.00;99790.25;5005170;28;19914;-91
2021/08/10 04:48:43;;;;;;;;;;;;;;;5.56;100.00;99808.00;5016027;28;19938;-92
2021/08/10 04:51:08;;;;;;;;;;;;;;;5.39;100.00;99813.66;5034660;28;19985;-92
2021/08/10 04:53:33;;;;;;;;;;;;;;;5.43;100.00;99832.84;5035030;28;19921;-92
2021/08/10 07:59:32;;;;;;;;;;;;;;;5.59;97.82;99821.09;5140583;23;19929;-90
2021/08/10 08:01:58;;;;;;;;;;;;;;;5.56;98.24;99829.03;4994822;28;19921;-91
2021/08/10 08:04:23;;;;;;;;;;;;;;;5.64;99.49;99840.25;4995609;28;19981;-91
2021/08/10 08:06:48;;;;;;;;;;;;;;;5.66;97.77;99834.09;4989621;28;19938;-91
2021/08/10 08:09:14;;;;;;;;;;;;;;;5.56;97.89;99828.19;4987360;28;20022;-91
2021/08/10 08:11:39;;;;;;;;;;;;;;;5.58;97.93;99829.88;5003727;28;19922;-91
2021/08/10 08:14:04;;;;;;;;;;;;;;;5.60;98.56;99830.72;5001609;28;19991;-91
2021/08/10 08:16:29;;;;;;;;;;;;;;;5.71;98.59;99834.84;5000404;28;20023;-90
2021/08/10 08:18:55;;;;;;;;;;;;;;;5.66;97.25;99834.09;4983864;28;20016;-91
2021/08/10 08:21:20;;;;;;;;;;;;;;;5.74;97.22;99840.91;4983582;28;19976;-89
2021/08/10 08:23:45;;;;;;;;;;;;;;;5.71;97.08;99833.13;5001364;28;19925;-91
2021/08/10 08:26:11;;;;;;;;;;;;;;;5.60;96.75;99830.72;4984490;28;19922;-92
2021/08/10 08:28:37;;;;;;;;;;;;;;;5.64;98.56;99832.38;5001670;28;19921;-91
2021/08/10 08:31:05;;;;;;;;;;;;;;;5.72;97.64;99834.81;4984327;28;20365;-90
2021/08/10 08:33:31;;;;;;;;;;;;;;;5.69;97.76;99834.91;5001419;28;20008;-90
2021/08/10 08:35:56;;;;;;;;;;;;;;;5.67;97.82;99841.97;5003755;28;20016;-90
2021/08/10 08:38:21;;;;;;;;;;;;;;;5.70;98.10;99841.03;5002042;28;19918;-90
2021/08/10 08:40:48;;;;;;;;;;;;;;;5.75;98.33;99840.03;4984089;28;20008;-92
2021/08/10 08:43:13;;;;;;;;;;;;;;;5.70;97.68;99835.78;4983931;28;19931;-92
2021/08/10 08:45:42;;;;;;;;;;;;;;;5.63;99.57;99843.78;4984284;28;20024;-90
2021/08/10 08:48:10;;;;;;;;;;;;;;;5.71;98.93;99837.50;4984158;28;19925;-90
2021/08/10 08:50:35;;;;;;;;;;;;;;;5.66;98.18;99834.09;4989379;28;19933;-90
2021/08/10 08:53:03;;;;;;;;;;;;;;;5.78;98.00;99839.94;5000155;28;19925;-90
2021/08/10 08:55:29;;;;;;;;;;;;;;;5.78;97.86;99839.94;4994417;28;19918;-91
2021/08/10 08:57:55;;;;;;;;;;;;;;;5.58;99.75;99842.16;4999689;28;19933;-91
2021/08/10 09:00:20;;;;;;;;;;;;;;;5.66;97.56;99844.63;4984399;28;19918;-92
2021/08/10 09:02:45;;;;;;;;;;;;;;;5.74;98.77;99837.41;4983823;28;20268;-90
2021/08/10 09:05:14;;;;;;;;;;;;;;;5.67;100.00;99847.22;4983858;28;19918;-90
2021/08/10 09:07:42;;;;;;;;;;;;;;;5.66;100.00;99844.63;4983739;28;19922;-91
2021/08/10 09:10:11;;;;;;;;;;;;;;;5.83;98.86;99848.59;4987284;28;19980;-90
2021/08/10 09:12:46;;;;;;;;;;;;;;;5.70;98.83;99843.66;4987347;28;19929;-91
2021/08/10 09:15:27;;;;;;;;;;;;;;;5.73;99.36;99839.19;5005162;28;20029;-91
2021/08/10 09:17:53;;;;;;;;;;;;;;;5.73;100.00;99836.56;5006321;28;19988;-92
2021/08/10 09:20:20;;;;;;;;;;;;;;;5.82;99.17;99833.75;5006078;28;19922;-91
2021/08/10 09:22:45;;;;;;;;;;;;;;;5.92;99.03;99837.03;5006788;28;19922;-91
2021/08/10 09:25:15;;;;;;;;;;;;;;;5.83;98.32;99837.22;5005185;28;20013;-91
2021/08/10 09:27:40;;;;;;;;;;;;;;;5.60;100.00;99837.72;4988521;28;20009;-92
2021/08/10 09:30:08;;;;;;;;;;;;;;;5.85;100.00;99838.03;5006664;28;20015;-91
2021/08/10 09:32:34;;;;;;;;;;;;;;;5.90;98.73;99837.94;4987832;28;19952;-91
2021/08/10 09:35:05;;;;;;;;;;;;;;;5.54;100.00;99838.72;5005367;28;19926;-91
2021/08/10 09:37:31;;;;;;;;;;;;;;;5.71;100.00;99834.84;5017452;28;20265;-92
2021/08/10 09:39:56;;;;;;;;;;;;;;;5.67;100.00;99835.84;5026665;28;19932;-91
2021/08/10 09:42:23;;;;;;;;;;;;;;;5.76;100.00;99835.63;5025947;28;19928;-90
2021/08/10 09:44:57;;;;;;;;;;;;;;;5.90;100.00;99830.06;5022079;28;19921;-92
2021/08/10 09:47:29;;;;;;;;;;;;;;;5.87;100.00;99836.28;5021871;28;19921;-89
2021/08/10 09:49:54;;;;;;;;;;;;;;;5.85;100.00;99831.94;5022448;28;19921;-90
2021/08/10 09:52:24;;;;;;;;;;;;;;;5.88;100.00;99827.47;5022643;28;20212;-89
2021/08/10 09:54:49;;;;;;;;;;;;;;;5.93;100.00;99827.34;5004764;28;19928;-90
2021/08/10 09:57:15;;;;;;;;;;;;;;;5.87;100.00;99825.75;5021794;28;20292;-91
2021/08/10 09:59:41;;;;;;;;;;;;;;;5.94;100.00;99824.69;5022196;28;19921;-92
2021/08/10 10:02:19;;;;;;;;;;;;;;;5.91;100.00;99824.75;5004376;28;19918;-89
2021/08/10 10:04:50;;;;;;;;;;;;;;;5.92;99.58;99821.25;5021204;28;20351;-90
2021/08/10 10:07:16;;;;;;;;;;;;;;;5.81;100.00;99828.50;5021688;28;19925;-91
2021/08/10 10:09:42;;;;;;;;;;;;;;;5.83;100.00;99826.72;5014384;28;19918;-92
2021/08/10 10:12:07;;;;;;;;;;;;;;;5.79;100.00;99819.78;5001791;28;19929;-90
2021/08/10 10:14:33;;;;;;;;;;;;;;;5.92;100.00;99823.88;5010710;28;19921;-91
2021/08/10 10:16:59;;;;;;;;;;;;;;;5.88;100.00;99819.56;5019297;28;20034;-90
2021/08/10 10:19:24;;;;;;;;;;;;;;;5.94;99.90;99816.81;5021856;28;19918;-91
2021/08/10 10:21:57;;;;;;;;;;;;;;;5.86;99.51;99821.38;5004885;28;19930;-91
2021/08/10 10:24:23;;;;;;;;;;;;;;;5.74;100.00;99824.28;4998617;28;19921;-91
2021/08/10 10:26:54;;;;;;;;;;;;;;;5.75;100.00;99820.75;5004935;28;19932;-91
2021/08/10 10:29:20;;;;;;;;;;;;;;;5.80;100.00;99824.16;5022723;28;19918;-90
2021/08/10 10:31:45;;;;;;;;;;;;;;;6.02;99.57;99821.06;5004646;28;20008;-89
2021/08/10 10:34:14;;;;;;;;;;;;;;;5.77;100.00;99821.59;5004135;28;19918;-90
2021/08/10 10:36:41;;;;;;;;;;;;;;;5.88;100.00;99826.59;5015676;28;19922;-90
2021/08/10 10:39:08;;;;;;;;;;;;;;;5.97;99.85;99827.28;4994648;28;20201;-90
2021/08/10 10:41:40;;;;;;;;;;;;;;;5.86;100.00;99825.78;5001246;28;19918;-90
2021/08/10 10:44:12;;;;;;;;;;;;;;;5.70;100.00;99830.53;4995568;28;19928;-89
2021/08/10 10:46:38;;;;;;;;;;;;;;;5.85;100.00;99830.16;5001095;28;19944;-89
2021/08/10 10:49:05;;;;;;;;;;;;;;;5.91;100.00;99824.75;5016321;28;19984;-90
2021/08/10 10:51:32;;;;;;;;;;;;;;;6.05;99.76;99826.22;5001104;28;19917;-90
2021/08/10 10:54:26;;;;;;;;;;;;;;;5.94;100.00;99822.06;4999396;28;19940;-91
2021/08/10 10:56:55;;;;;;;;;;;;;;;5.79;100.00;99817.16;4984158;28;19921;-91
2021/08/10 10:59:27;;;;;;;;;;;;;;;5.79;100.00;99830.28;5000253;28;20017;-91
2021/08/10 11:02:10;;;;;;;;;;;;;;;5.79;100.00;99825.03;4999455;28;19922;-89
2021/08/10 11:04:36;;;;;;;;;;;;;;;6.02;99.59;99821.06;5019980;28;19926;-89
2021/08/10 11:07:22;;;;;;;;;;;;;;;5.99;97.97;99824.63;5019309;28;19926;-91
2021/08/10 11:09:48;;;;;;;;;;;;;;;5.88;100.00;99824.81;5019472;28;20044;-90
2021/08/10 11:12:32;;;;;;;;;;;;;;;5.81;100.00;99820.63;5002236;28;19925;-89
2021/08/10 11:14:57;;;;;;;;;;;;;;;5.81;100.00;99813.59;4999898;28;19922;-89
2021/08/10 11:17:25;;;;;;;;;;;;;;;5.86;99.99;99821.38;5007133;28;20193;-89
2021/08/10 11:20:00;;;;;;;;;;;;;;;6.01;99.58;99809.66;5022050;28;19921;-90
2021/08/10 11:22:26;;;;;;;;;;;;;;;5.99;98.96;99812.31;5059174;28;19972;-91
2021/08/10 11:24:54;;;;;;;;;;;;;;;5.82;100.00;99822.34;5059073;28;19963;-90
2021/08/10 11:27:43;;;;;;;;;;;;;;;5.95;100.00;99813.28;5046758;28;20015;-90
2021/08/10 11:30:28;;;;;;;;;;;;;;;5.91;99.40;99810.75;5049386;28;19932;-89
2021/08/10 11:32:54;;;;;;;;;;;;;;;5.78;100.00;99812.81;5020706;28;19952;-89
2021/08/10 11:35:33;;;;;;;;;;;;;;;5.86;100.00;99804.75;5027428;28;20022;-89
2021/08/10 11:38:05;;;;;;;;;;;;;;;5.96;99.57;99799.25;5022552;28;19921;-91
2021/08/10 11:40:36;;;;;;;;;;;;;;;5.90;100.00;99801.97;5021927;28;19917;-91
2021/08/10 11:43:02;;;;;;;;;;;;;;;5.85;100.00;99797.75;5023016;28;20012;-90
2021/08/10 11:45:34;;;;;;;;;;;;;;;5.85;100.00;99803.84;5022288;28;19960;-89
2021/08/10 11:48:03;;;;;;;;;;;;;;;6.00;99.95;99792.16;5025638;28;19926;-89
2021/08/10 11:50:30;;;;;;;;;;;;;;;5.79;100.00;99804.00;5019259;28;20004;-89
2021/08/10 11:52:56;;;;;;;;;;;;;;;5.92;100.00;99800.19;5030891;28;19944;-92
2021/08/10 11:55:27;;;;;;;;;;;;;;;5.83;100.00;99803.03;5021148;28;19919;-89
2021/08/10 11:57:54;;;;;;;;;;;;;;;5.82;100.00;99798.66;5011508;28;19953;-91
2021/08/10 12:00:20;;;;;;;;;;;;;;;5.99;100.00;99795.69;5018985;28;19917;-89
2021/08/10 12:02:49;;;;;;;;;;;;;;;5.99;99.80;99786.03;5019876;28;19929;-89
2021/08/10 12:05:14;;;;;;;;;;;;;;;5.88;100.00;99795.91;5020862;28;20491;-89
2021/08/10 12:07:47;;;;;;;;;;;;;;;6.00;99.35;99782.50;5020930;28;19993;-90
2021/08/10 12:10:12;;;;;;;;;;;;;;;5.78;100.00;99782.09;5021863;28;19917;-89
2021/08/10 12:12:37;;;;;;;;;;;;;;;5.92;100.00;99783.53;5020562;28;19921;-90
2021/08/10 12:15:03;;;;;;;;;;;;;;;6.01;99.56;99775.47;5025715;28;19976;-89
2021/08/10 12:17:30;;;;;;;;;;;;;;;5.97;99.79;99782.56;5018868;28;19917;-89
2021/08/10 12:19:56;;;;;;;;;;;;;;;5.86;99.58;99784.56;5020087;28;20327;-89
2021/08/10 12:22:22;;;;;;;;;;;;;;;5.98;100.00;99779.06;5020704;28;19953;-91
2021/08/10 12:24:49;;;;;;;;;;;;;;;6.08;99.24;99768.28;5019591;28;19971;-89
2021/08/10 12:27:29;;;;;;;;;;;;;;;5.92;99.58;99767.75;5021322;28;19921;-90
2021/08/10 12:29:58;;;;;;;;;;;;;;;5.92;99.90;99778.28;5020117;28;19944;-89
2021/08/10 12:32:24;;;;;;;;;;;;;;;6.02;99.15;99784.25;5021923;28;20063;-89
2021/08/10 12:34:52;;;;;;;;;;;;;;;5.86;99.67;99779.31;5020155;28;19929;-90
2021/08/10 12:37:27;;;;;;;;;;;;;;;6.00;97.77;99781.66;5024101;28;19917;-90
2021/08/10 12:39:53;;;;;;;;;;;;;;;6.02;98.43;99766.69;5020408;28;19921;-89
2021/08/10 12:42:18;;;;;;;;;;;;;;;5.92;99.46;99759.88;5029666;28;20008;-89
2021/08/10 12:44:45;;;;;;;;;;;;;;;6.05;98.85;99763.97;5019466;28;19922;-88
2021/08/10 12:47:12;;;;;;;;;;;;;;;5.99;98.28;99761.50;5019398;28;19925;-89
2021/08/10 12:49:44;;;;;;;;;;;;;;;5.86;99.67;99752.16;5020570;28;19968;-89
2021/08/10 12:52:13;;;;;;;;;;;;;;;5.98;98.41;99755.38;5020767;28;20012;-89
2021/08/10 12:54:45;;;;;;;;;;;;;;;5.97;97.95;99752.78;5018825;28;19953;-89
2021/08/10 12:57:29;;;;;;;;;;;;;;;5.87;98.69;99746.84;5027503;28;19925;-89
2021/08/10 12:59:58;;;;;;;;;;;;;;;6.11;98.46;99739.25;5026350;28;19933;-90
2021/08/10 13:02:33;;;;;;;;;;;;;;;6.02;97.20;99745.63;5044392;28;19921;-91
2021/08/10 13:04:59;;;;;;;;;;;;;;;5.80;98.84;99745.25;5063916;28;20057;-89
2021/08/10 13:07:24;;;;;;;;;;;;;;;5.92;98.93;99752.84;5063412;28;20066;-90
2021/08/10 13:09:58;;;;;;;;;;;;;;;5.99;97.95;99743.94;5047419;28;20050;-89
2021/08/10 13:12:25;;;;;;;;;;;;;;;5.91;99.74;99740.59;5055493;28;20181;-88
2021/08/10 13:14:54;;;;;;;;;;;;;;;6.05;98.14;99742.94;5059446;28;19928;-91
2021/08/10 13:17:28;;;;;;;;;;;;;;;6.03;98.93;99743.84;5055116;28;20000;-89
2021/08/10 13:20:08;;;;;;;;;;;;;;;5.92;99.75;99741.44;5047715;28;20248;-90
2021/08/10 13:22:45;;;;;;;;;;;;;;;5.97;99.22;99735.22;5066493;28;19963;-90
2021/08/10 13:25:13;;;;;;;;;;;;;;;6.05;99.30;99737.66;5034588;28;19934;-89
2021/08/10 13:27:38;;;;;;;;;;;;;;;5.97;99.32;99742.25;5046559;28;19917;-91
2021/08/10 13:30:04;;;;;;;;;;;;;;;5.93;100.00;99728.28;5041853;28;19932;-91
2021/08/10 13:32:29;;;;;;;;;;;;;;;5.98;99.46;99742.22;5058801;28;19920;-91
2021/08/10 13:34:56;;;;;;;;;;;;;;;6.03;99.20;99749.13;5054456;28;19926;-90
2021/08/10 13:37:21;;;;;;;;;;;;;;;6.05;99.00;99732.41;5048434;28;20306;-90
2021/08/10 13:39:47;;;;;;;;;;;;;;;6.00;99.42;99742.19;5057429;28;19927;-89
2021/08/10 13:42:16;;;;;;;;;;;;;;;6.05;98.68;99731.53;5065486;28;19957;-89
2021/08/10 13:44:41;;;;;;;;;;;;;;;6.17;97.98;99736.47;5043789;28;19925;-89
2021/08/10 13:47:06;;;;;;;;;;;;;;;6.11;97.06;99731.38;5057041;28;20292;-90
2021/08/10 13:49:31;;;;;;;;;;;;;;;6.04;99.10;99729.81;5055030;28;19921;-91
2021/08/10 13:51:57;;;;;;;;;;;;;;;6.02;98.64;99721.09;5059445;28;19964;-91
2021/08/10 13:54:22;;;;;;;;;;;;;;;6.05;98.56;99723.63;5056407;28;19917;-91
2021/08/10 13:56:47;;;;;;;;;;;;;;;6.06;99.12;99717.47;5044480;28;19973;-90
2021/08/10 13:59:13;;;;;;;;;;;;;;;6.05;97.92;99716.63;5045528;28;20067;-89
2021/08/10 14:01:49;;;;;;;;;;;;;;;5.91;100.00;99713.44;5053258;28;19936;-91
2021/08/10 14:04:15;;;;;;;;;;;;;;;5.97;99.68;99714.19;5047689;28;19932;-90
2021/08/10 14:06:41;;;;;;;;;;;;;;;6.15;99.79;99706.72;5041568;28;19920;-90
2021/08/10 14:09:07;;;;;;;;;;;;;;;6.03;99.98;99717.56;5063384;28;20173;-89
2021/08/10 14:11:33;;;;;;;;;;;;;;;6.05;99.49;99715.75;5048550;28;20042;-89
2021/08/10 14:14:00;;;;;;;;;;;;;;;6.11;98.52;99707.69;5043750;28;20016;-90
2021/08/10 14:16:26;;;;;;;;;;;;;;;6.12;99.18;99712.06;5033082;28;19971;-89
2021/08/10 14:18:51;;;;;;;;;;;;;;;6.21;97.89;99703.94;5015562;28;20201;-89
2021/08/10 14:21:17;;;;;;;;;;;;;;;6.03;99.60;99704.41;5037405;28;19917;-90
2021/08/10 14:23:43;;;;;;;;;;;;;;;5.96;100.00;99712.44;5037817;28;19921;-89
2021/08/10 14:26:08;;;;;;;;;;;;;;;5.99;100.00;99707.09;5026865;28;19921;-92
2021/08/10 14:28:34;;;;;;;;;;;;;;;6.06;99.52;99706.97;5043348;28;19932;-90
2021/08/10 14:30:59;;;;;;;;;;;;;;;5.98;100.00;99702.78;5021784;28;20289;-91
2021/08/10 14:33:25;;;;;;;;;;;;;;;5.99;100.00;99699.22;5021656;28;19917;-90
2021/08/10 14:35:50;;;;;;;;;;;;;;;5.95;100.00;99699.28;5015754;28;20020;-89
2021/08/10 14:38:16;;;;;;;;;;;;;;;5.95;100.00;99705.44;5022277;28;19971;-90
2021/08/10 14:40:43;;;;;;;;;;;;;;;6.07;100.00;99708.69;5043942;28;19963;-90
2021/08/10 14:43:09;;;;;;;;;;;;;;;6.05;99.91;99699.97;5020897;28;19983;-91
2021/08/10 14:45:36;;;;;;;;;;;;;;;6.15;99.11;99702.31;5018792;28;19929;-91
2021/08/10 14:48:01;;;;;;;;;;;;;;;6.15;99.68;99699.69;5016574;28;20523;-89
2021/08/10 14:50:26;;;;;;;;;;;;;;;6.11;99.54;99694.53;5037548;28;19920;-92
2021/08/10 14:52:52;;;;;;;;;;;;;;;6.23;99.17;99693.38;5021906;28;19932;-89
2021/08/10 14:55:17;;;;;;;;;;;;;;;6.18;99.40;99693.50;5021777;28;19924;-90
2021/08/10 14:57:42;;;;;;;;;;;;;;;6.08;99.92;99697.25;5031446;28;19929;-92
2021/08/10 15:00:08;;;;;;;;;;;;;;;6.15;99.00;99691.78;5032414;28;20039;-90
2021/08/10 15:02:33;;;;;;;;;;;;;;;6.16;100.00;99695.31;5021645;28;20212;-89
2021/08/10 15:04:59;;;;;;;;;;;;;;;6.09;100.00;99694.59;5016205;28;19932;-91
2021/08/10 15:07:24;;;;;;;;;;;;;;;6.12;99.99;99688.38;5019462;28;19921;-91
2021/08/10 15:09:50;;;;;;;;;;;;;;;6.15;100.00;99685.69;5038697;28;19920;-90
2021/08/10 15:12:19;;;;;;;;;;;;;;;6.23;99.94;99683.69;5021818;28;19944;-89
2021/08/10 15:14:45;;;;;;;;;;;;;;;6.18;100.00;99680.34;5029440;28;19932;-89
2021/08/10 15:17:11;;;;;;;;;;;;;;;6.17;99.00;99681.22;5044238;28;19917;-90
2021/08/10 15:19:37;;;;;;;;;;;;;;;6.24;99.45;99680.19;5043349;28;19970;-89
2021/08/10 15:22:02;;;;;;;;;;;;;;;6.23;98.65;99673.19;5028399;28;20273;-91
2021/08/10 15:24:29;;;;;;;;;;;;;;;6.19;99.74;99671.56;5004743;28;19975;-90
2021/08/10 15:26:55;;;;;;;;;;;;;;;6.26;100.00;99678.38;5002136;28;20029;-90
2021/08/10 15:29:21;;;;;;;;;;;;;;;6.21;98.77;99675.00;5020274;28;20530;-90
2021/08/10 15:31:47;;;;;;;;;;;;;;;6.29;98.95;99680.06;5022212;28;19921;-91
2021/08/10 15:34:14;;;;;;;;;;;;;;;6.24;98.92;99677.53;5023825;28;19918;-90
2021/08/10 15:36:42;;;;;;;;;;;;;;;6.15;99.78;99673.38;5003061;28;19921;-90
2021/08/10 15:39:08;;;;;;;;;;;;;;;6.10;100.00;99677.91;5009193;28;19971;-90
2021/08/10 15:41:34;;;;;;;;;;;;;;;6.29;99.03;99675.66;5004217;28;20196;-89
2021/08/10 15:43:59;;;;;;;;;;;;;;;6.22;99.23;99673.22;5021479;28;19922;-91
2021/08/10 15:46:25;;;;;;;;;;;;;;;6.23;99.32;99667.06;5003160;28;19990;-89
2021/08/10 15:48:52;;;;;;;;;;;;;;;6.26;99.29;99670.47;5017552;28;20290;-91
2021/08/10 15:51:17;;;;;;;;;;;;;;;6.26;99.28;99662.56;5004691;28;19917;-91
2021/08/10 15:53:49;;;;;;;;;;;;;;;6.22;98.21;99666.19;5013434;28;20303;-91
2021/08/10 15:56:16;;;;;;;;;;;;;;;6.21;99.00;99659.22;5007882;28;20302;-90
2021/08/10 15:58:44;;;;;;;;;;;;;;;6.34;99.34;99657.97;5003303;28;19921;-91
2021/08/10 16:01:09;;;;;;;;;;;;;;;6.24;98.60;99664.38;5004191;28;19921;-90
2021/08/10 16:03:35;;;;;;;;;;;;;;;6.30;98.37;99663.34;5001965;28;19927;-91
2021/08/10 16:06:07;;;;;;;;;;;;;;;6.18;99.20;99664.56;4998888;28;19936;-89
2021/08/10 16:08:57;;;;;;;;;;;;;;;6.29;98.68;99659.00;4999626;28;19917;-90
2021/08/10 16:11:24;;;;;;;;;;;;;;;6.17;99.11;99660.19;5008694;28;19925;-89
2021/08/10 16:13:49;;;;;;;;;;;;;;;6.18;100.00;99662.78;5023238;28;19983;-90
2021/08/10 16:16:25;;;;;;;;;;;;;;;6.25;98.84;99652.94;5019505;28;19921;-90
2021/08/10 16:18:51;;;;;;;;;;;;;;;6.42;98.07;99656.91;5000080;28;20252;-91
2021/08/10 16:21:20;;;;;;;;;;;;;;;6.27;99.41;99652.91;5023796;28;19922;-89
2021/08/10 16:23:47;;;;;;;;;;;;;;;6.26;99.59;99665.19;5005005;28;19925;-90
2021/08/10 16:26:15;;;;;;;;;;;;;;;6.27;99.51;99659.06;5004296;28;19921;-89
2021/08/10 16:28:40;;;;;;;;;;;;;;;6.21;99.95;99661.84;5001236;28;19921;-89
2021/08/10 16:31:11;;;;;;;;;;;;;;;6.19;99.84;99663.66;5002115;28;19922;-88
2021/08/10 16:33:40;;;;;;;;;;;;;;;6.05;100.00;99653.50;5003077;28;19957;-90
2021/08/10 16:36:06;;;;;;;;;;;;;;;6.28;99.80;99662.53;5000426;28;20331;-90
2021/08/10 16:38:38;;;;;;;;;;;;;;;6.35;98.80;99656.19;5000149;28;19921;-90
2021/08/10 16:41:03;;;;;;;;;;;;;;;6.26;99.02;99661.72;5004255;28;19933;-90
2021/08/10 16:43:29;;;;;;;;;;;;;;;6.35;98.37;99662.31;5018226;28;19974;-90
2021/08/10 16:45:55;;;;;;;;;;;;;;;6.28;98.48;99660.75;5002477;28;19930;-89
2021/08/10 16:48:20;;;;;;;;;;;;;;;6.22;98.73;99660.06;5019988;28;19944;-91
2021/08/10 16:50:46;;;;;;;;;;;;;;;6.30;99.70;99663.34;5019588;28;19929;-90
2021/08/10 16:53:13;;;;;;;;;;;;;;;6.28;98.47;99660.75;5002800;28;19921;-91
2021/08/10 16:55:45;;;;;;;;;;;;;;;6.33;99.27;99664.16;5001589;28;19953;-88
2021/08/10 16:58:10;;;;;;;;;;;;;;;6.40;97.96;99661.31;4999464;28;19921;-88
2021/08/10 17:00:36;;;;;;;;;;;;;;;6.31;97.76;99655.41;5020449;28;20208;-89
2021/08/10 17:03:04;;;;;;;;;;;;;;;6.37;99.33;99657.03;5002038;28;19921;-90
2021/08/10 17:05:32;;;;;;;;;;;;;;;6.42;98.14;99654.28;5000427;28;19917;-90
2021/08/10 17:08:02;;;;;;;;;;;;;;;6.26;99.09;99654.69;5020477;28;19929;-88
2021/08/10 17:10:28;;;;;;;;;;;;;;;6.23;99.80;99646.00;5018963;28;19925;-89
2021/08/10 17:12:53;;;;;;;;;;;;;;;6.32;99.08;99648.41;4998907;28;20182;-89
2021/08/10 17:15:19;;;;;;;;;;;;;;;6.35;98.71;99638.66;5001542;28;19913;-90
2021/08/10 17:17:44;;;;;;;;;;;;;;;6.44;98.49;99639.28;5016129;28;19922;-89
2021/08/10 17:20:12;;;;;;;;;;;;;;;6.36;99.36;99642.97;5017033;28;20027;-89
2021/08/10 17:22:37;;;;;;;;;;;;;;;6.47;98.95;99645.31;5017572;28;19929;-92
2021/08/10 17:25:03;;;;;;;;;;;;;;;6.48;97.24;99648.84;5000126;28;20220;-90
2021/08/10 17:27:33;;;;;;;;;;;;;;;6.42;98.97;99646.38;4998924;28;22032;-89
2021/08/10 17:30:00;;;;;;;;;;;;;;;6.39;97.89;99641.19;5000960;28;19922;-89
2021/08/10 17:32:32;;;;;;;;;;;;;;;6.51;98.04;99651.34;4999012;28;19933;-89
2021/08/10 17:34:58;;;;;;;;;;;;;;;6.38;98.75;99647.34;5003519;28;19957;-89
2021/08/10 17:37:23;;;;;;;;;;;;;;;6.23;98.82;99646.88;5018310;28;20295;-89
2021/08/10 17:39:51;;;;;;;;;;;;;;;6.40;100.00;99646.41;5021643;28;20043;-89
2021/08/10 17:42:16;;;;;;;;;;;;;;;6.44;96.93;99649.81;5025900;28;19917;-89
2021/08/10 17:44:41;;;;;;;;;;;;;;;6.48;97.90;99647.06;4998932;28;19979;-90
2021/08/10 17:47:10;;;;;;;;;;;;;;;6.61;98.12;99651.97;4999297;28;19925;-89
2021/08/10 17:49:36;;;;;;;;;;;;;;;6.50;97.75;99654.91;4999687;28;19979;-89
2021/08/10 17:52:04;;;;;;;;;;;;;;;6.32;98.63;99649.25;5001476;28;19930;-88
2021/08/10 17:54:29;;;;;;;;;;;;;;;6.52;99.00;99653.94;4996837;28;19921;-89
2021/08/10 17:56:54;;;;;;;;;;;;;;;6.43;98.11;99640.19;5000898;28;20016;-87
2021/08/10 17:59:22;;;;;;;;;;;;;;;6.48;97.50;99652.31;5021852;28;19970;-88
2021/08/10 18:01:47;;;;;;;;;;;;;;;6.55;97.10;99647.75;5000163;28;19943;-88
2021/08/10 18:04:13;;;;;;;;;;;;;;;6.54;97.00;99646.00;5004122;28;19925;-88
2021/08/10 18:06:39;;;;;;;;;;;;;;;6.53;98.09;99644.28;5018993;28;19952;-89
2021/08/10 18:09:05;;;;;;;;;;;;;;;6.55;97.16;99648.59;5021726;28;19921;-89
2021/08/10 18:11:39;;;;;;;;;;;;;;;6.54;97.13;99656.53;5017124;28;20200;-89
2021/08/10 18:14:04;;;;;;;;;;;;;;;6.60;97.00;99652.88;5006008;28;20103;-88
2021/08/10 18:16:30;;;;;;;;;;;;;;;6.43;98.53;99655.97;5015282;28;20565;-89
2021/08/10 18:18:57;;;;;;;;;;;;;;;6.41;98.57;99660.44;4982990;28;19918;-89
2021/08/10 18:21:24;;;;;;;;;;;;;;;6.48;98.65;99662.00;5012993;28;19975;-89
2021/08/10 18:23:50;;;;;;;;;;;;;;;6.52;99.01;99663.63;5016525;28;19925;-90
2021/08/10 18:26:15;;;;;;;;;;;;;;;6.52;98.45;99668.88;5016429;28;19935;-89
2021/08/10 18:28:41;;;;;;;;;;;;;;;6.43;98.93;99666.50;5016974;28;19921;-89
2021/08/10 18:31:10;;;;;;;;;;;;;;;6.64;98.36;99667.69;5023879;28;19931;-89
2021/08/10 18:33:36;;;;;;;;;;;;;;;6.51;98.83;99672.41;5043500;28;20248;-88
2021/08/10 18:36:01;;;;;;;;;;;;;;;6.58;97.44;99670.50;5058870;28;19921;-89
2021/08/10 18:38:27;;;;;;;;;;;;;;;6.58;97.31;99673.97;5058070;28;19929;-89
2021/08/10 18:40:53;;;;;;;;;;;;;;;6.63;98.34;99677.34;5058086;28;20358;-88
2021/08/10 18:43:18;;;;;;;;;;;;;;;6.58;96.47;99687.13;5038632;28;19912;-90
2021/08/10 18:45:45;;;;;;;;;;;;;;;6.60;98.54;99676.56;5043035;28;19944;-89
2021/08/10 18:48:10;;;;;;;;;;;;;;;6.51;98.38;99682.94;5042833;28;20308;-90
2021/08/10 18:50:36;;;;;;;;;;;;;;;6.49;98.25;99682.13;5042891;28;19932;-89
2021/08/10 18:53:01;;;;;;;;;;;;;;;6.56;97.42;99675.81;5043423;28;19921;-91
2021/08/10 18:55:27;;;;;;;;;;;;;;;6.59;96.67;99677.47;5043496;28;19931;-89
2021/08/10 18:57:54;;;;;;;;;;;;;;;6.52;99.02;99687.31;5042416;28;19959;-89
2021/08/10 19:00:19;;;;;;;;;;;;;;;6.54;98.28;99688.13;5042746;28;19921;-89
2021/08/10 19:02:45;;;;;;;;;;;;;;;6.63;97.21;99687.88;5041939;28;20010;-88
2021/08/10 19:05:11;;;;;;;;;;;;;;;6.64;98.42;99688.75;5041281;28;19968;-89
2021/08/10 19:07:37;;;;;;;;;;;;;;;6.66;97.09;99700.94;5040315;28;19932;-89
2021/08/10 19:10:03;;;;;;;;;;;;;;;6.68;97.82;99701.75;5042605;28;19967;-89
2021/08/10 19:12:30;;;;;;;;;;;;;;;6.66;97.57;99703.59;5042408;28;19921;-89
2021/08/10 19:14:56;;;;;;;;;;;;;;;6.60;96.98;99706.38;5044385;28;19921;-89
2021/08/10 19:17:23;;;;;;;;;;;;;;;6.73;98.42;99702.53;5022607;28;19932;-89
2021/08/10 19:19:52;;;;;;;;;;;;;;;6.65;97.88;99712.41;5023582;28;19921;-88
2021/08/10 19:22:19;;;;;;;;;;;;;;;6.65;96.05;99711.53;5040451;28;19921;-89